Time;durP1;ratioP1;P1;durP2;ratioP2;P2;SDS_P1;SDS_P2;PMS_P1;PMS_P2;Temp;Humidity;BMP_temperature;BMP_pressure;BME280_temperature;BME280_humidity;BME280_pressure;Samples;Min_cycle;Max_cycle;Signal;HPM_P1;HPM_P2
2023/10/18 00:01:57;;;;;;;0.10;0.10;;;;;;;3.67;83.05;98683.09;5106887;28;20092;-69
2023/10/18 00:04:23;;;;;;;0.10;0.10;;;;;;;3.71;82.55;98707.72;5089650;28;20565;-70
2023/10/18 00:06:54;;;;;;;0.00;0.00;;;;;;;3.66;82.45;98688.75;5104929;28;20035;-70
2023/10/18 00:09:42;;;;;;;0.10;0.10;;;;;;;3.61;82.43;98696.81;5106219;28;20097;-70
2023/10/18 00:12:10;;;;;;;0.10;0.10;;;;;;;3.57;82.84;98696.50;5086877;28;20048;-68
2023/10/18 00:14:39;;;;;;;0.10;0.10;;;;;;;3.60;82.11;98696.00;5109180;28;20036;-68
2023/10/18 00:17:05;;;;;;;0.10;0.10;;;;;;;3.62;82.70;98683.03;5088788;28;20433;-66
2023/10/18 00:19:31;;;;;;;0.10;0.10;;;;;;;3.66;82.46;98696.84;5107046;28;20047;-70
2023/10/18 00:21:58;;;;;;;0.00;0.00;;;;;;;3.70;81.27;98697.97;5103678;28;20134;-70
2023/10/18 00:24:24;;;;;;;0.10;0.10;;;;;;;3.69;81.36;98699.88;5107466;28;20115;-68
2023/10/18 00:26:51;;;;;;;0.10;0.10;;;;;;;3.77;81.97;98703.16;5105472;28;20142;-68
2023/10/18 00:29:18;;;;;;;0.10;0.10;;;;;;;3.86;82.33;98706.22;5070562;28;20048;-68
2023/10/18 00:31:45;;;;;;;0.10;0.10;;;;;;;3.93;81.25;98709.53;5087897;28;20043;-68
2023/10/18 00:34:12;;;;;;;0.10;0.10;;;;;;;3.95;81.12;98701.97;5072342;28;20098;-68
2023/10/18 00:36:40;;;;;;;0.10;0.10;;;;;;;3.89;80.23;98705.69;5089080;28;20044;-68
2023/10/18 00:39:26;;;;;;;0.10;0.10;;;;;;;3.87;80.71;98714.09;5067565;28;20142;-69
2023/10/18 00:41:53;;;;;;;0.10;0.10;;;;;;;3.83;80.04;98715.69;5066946;28;20093;-69
2023/10/18 00:44:22;;;;;;;0.10;0.10;;;;;;;3.83;80.59;98730.00;5035814;28;20044;-69
2023/10/18 00:46:52;;;;;;;0.10;0.10;;;;;;;3.84;80.82;98725.44;5071753;28;20046;-69
2023/10/18 00:49:20;;;;;;;0.10;0.10;;;;;;;3.78;81.24;98712.91;5071681;28;20052;-69
2023/10/18 00:51:49;;;;;;;0.00;0.00;;;;;;;3.85;80.01;98727.06;5106988;28;20067;-70
2023/10/18 00:54:16;;;;;;;0.10;0.10;;;;;;;3.82;80.13;98722.13;5106623;28;20426;-70
2023/10/18 00:56:50;;;;;;;0.10;0.10;;;;;;;3.79;80.02;98720.78;5092488;28;20076;-70
2023/10/18 00:59:26;;;;;;;0.10;0.10;;;;;;;3.80;80.91;98727.81;5107415;28;20050;-70
2023/10/18 01:01:57;;;;;;;0.10;0.10;;;;;;;3.82;81.25;98727.53;5071813;28;20075;-68
2023/10/18 01:04:28;;;;;;;0.10;0.10;;;;;;;3.82;80.65;98728.38;5075205;28;20509;-68
2023/10/18 01:06:57;;;;;;;0.00;0.00;;;;;;;3.82;80.70;98720.25;5105032;28;20500;-68
2023/10/18 01:09:24;;;;;;;0.10;0.10;;;;;;;3.81;80.81;98724.03;5104923;28;20047;-68
2023/10/18 01:11:52;;;;;;;0.10;0.10;;;;;;;3.80;80.12;98716.16;5088314;28;20090;-69
2023/10/18 01:14:18;;;;;;;0.10;0.10;;;;;;;3.85;80.06;98723.53;5088129;28;20048;-69
2023/10/18 01:16:46;;;;;;;0.10;0.10;;;;;;;3.80;79.68;98725.13;5073706;28;20048;-70
2023/10/18 01:19:15;;;;;;;0.10;0.10;;;;;;;3.78;79.56;98745.38;5072372;28;20056;-70
2023/10/18 01:21:49;;;;;;;0.10;0.10;;;;;;;3.74;80.14;98728.81;5089418;28;20044;-68
2023/10/18 01:24:16;;;;;;;0.10;0.10;;;;;;;3.80;80.53;98718.88;5107978;28;20047;-68
2023/10/18 01:26:44;;;;;;;0.10;0.10;;;;;;;3.82;79.82;98725.66;5069519;28;20043;-68
2023/10/18 01:29:11;;;;;;;0.10;0.10;;;;;;;3.86;78.88;98727.84;5107179;28;20047;-68
2023/10/18 01:31:45;;;;;;;0.10;0.10;;;;;;;3.84;78.99;98733.53;5085453;28;20142;-69
2023/10/18 01:34:11;;;;;;;0.00;0.00;;;;;;;3.82;78.95;98730.25;5052913;28;20063;-69
2023/10/18 01:36:39;;;;;;;0.10;0.10;;;;;;;3.82;79.46;98731.06;5055682;28;20055;-69
2023/10/18 01:39:18;;;;;;;0.10;0.10;;;;;;;3.84;79.69;98736.25;5066464;28;20044;-69
2023/10/18 01:41:48;;;;;;;0.10;0.10;;;;;;;3.87;79.45;98745.72;5082301;28;20515;-70
2023/10/18 01:44:33;;;;;;;0.10;0.10;;;;;;;3.88;78.98;98745.47;5084888;28;20380;-68
2023/10/18 01:47:07;;;;;;;0.10;0.10;;;;;;;3.92;78.04;98745.78;5058124;28;20077;-68
2023/10/18 01:49:46;;;;;;;0.10;0.10;;;;;;;3.88;78.59;98745.47;5106080;28;20518;-68
2023/10/18 01:52:17;;;;;;;0.10;0.10;;;;;;;3.94;79.08;98749.03;5106607;28;20047;-70
2023/10/18 01:54:44;;;;;;;0.10;0.10;;;;;;;3.97;78.99;98749.31;5070913;28;20044;-67
2023/10/18 01:57:12;;;;;;;0.10;0.10;;;;;;;4.03;79.16;98750.19;5107019;28;20047;-68
2023/10/18 01:59:39;;;;;;;0.10;0.10;;;;;;;4.10;79.35;98752.69;5071518;28;20075;-68
2023/10/18 02:02:11;;;;;;;0.10;0.10;;;;;;;4.13;79.34;98762.97;5106968;28;20026;-67
2023/10/18 02:04:40;;;;;;;0.10;0.10;;;;;;;4.15;79.13;98760.84;5053271;28;20043;-69
2023/10/18 02:07:07;;;;;;;0.10;0.10;;;;;;;4.12;78.33;98764.06;5082475;28;20419;-70
2023/10/18 02:09:44;;;;;;;0.10;0.10;;;;;;;3.94;78.62;98747.13;5052139;28;20606;-70
2023/10/18 02:12:12;;;;;;;0.00;0.00;;;;;;;4.06;78.47;98757.81;5065174;28;20105;-68
2023/10/18 02:14:39;;;;;;;0.10;0.10;;;;;;;3.98;79.26;98758.25;5049273;28;20048;-69
2023/10/18 02:17:07;;;;;;;0.10;0.10;;;;;;;3.98;79.80;98760.97;5090985;28;20047;-68
2023/10/18 02:19:34;;;;;;;0.10;0.10;;;;;;;4.02;79.90;98761.28;5070619;28;20117;-69
2023/10/18 02:22:00;;;;;;;0.10;0.10;;;;;;;4.04;79.81;98757.22;5084709;28;20142;-69
2023/10/18 02:24:27;;;;;;;0.10;0.10;;;;;;;4.08;80.02;98768.34;5086034;28;20498;-70
2023/10/18 02:27:00;;;;;;;0.10;0.10;;;;;;;4.03;79.26;98754.78;5089511;28;20130;-69
2023/10/18 02:29:34;;;;;;;0.15;0.10;;;;;;;4.02;79.90;98755.88;5052523;28;20052;-68
2023/10/18 02:32:04;;;;;;;0.10;0.10;;;;;;;4.00;79.53;98745.28;5048161;28;20055;-68
2023/10/18 02:34:33;;;;;;;0.10;0.10;;;;;;;3.97;80.39;98759.34;5102191;28;20055;-68
2023/10/18 02:37:04;;;;;;;0.10;0.10;;;;;;;3.96;80.40;98747.69;5069448;28;20046;-68
2023/10/18 02:39:34;;;;;;;0.10;0.10;;;;;;;3.93;80.75;98750.91;5069512;28;20086;-70
2023/10/18 02:42:04;;;;;;;0.10;0.10;;;;;;;3.90;81.17;98761.41;5085801;28;20047;-69
2023/10/18 02:44:35;;;;;;;0.10;0.10;;;;;;;3.87;81.33;98760.06;5089434;28;20044;-69
2023/10/18 02:47:16;;;;;;;0.10;0.10;;;;;;;3.84;81.38;98768.69;5084871;28;20097;-70
2023/10/18 02:49:45;;;;;;;0.10;0.10;;;;;;;3.77;81.63;98749.97;5103883;28;20529;-69
2023/10/18 02:52:11;;;;;;;0.10;0.10;;;;;;;3.79;82.00;98757.81;5065603;28;20055;-69
2023/10/18 02:54:39;;;;;;;0.10;0.10;;;;;;;3.75;82.12;98757.53;5104518;28;20054;-69
2023/10/18 02:57:05;;;;;;;;;;;;;;;3.74;82.00;98750.44;5102812;28;20047;-70
2023/10/18 02:59:35;;;;;;;0.10;0.10;;;;;;;3.68;82.46;98767.72;5104101;28;19924;-74
2023/10/18 03:02:09;;;;;;;0.10;0.10;;;;;;;3.65;82.42;98746.59;5066285;28;20072;-69
2023/10/18 03:04:39;;;;;;;0.10;0.10;;;;;;;3.63;83.02;98754.16;5101894;28;20044;-69
2023/10/18 03:07:08;;;;;;;0.10;0.10;;;;;;;3.57;82.66;98764.09;5084988;28;20052;-69
2023/10/18 03:12:13;;;;;;;0.10;0.10;;;;;;;3.64;83.26;98750.38;5101845;28;20044;-70
2023/10/18 03:14:53;;;;;;;0.10;0.10;;;;;;;3.68;83.26;98763.13;5086680;28;20035;-70
2023/10/18 03:17:22;;;;;;;0.10;0.10;;;;;;;3.56;83.00;98746.25;5069727;28;20046;-70
2023/10/18 03:19:56;;;;;;;0.10;0.10;;;;;;;3.71;82.76;98778.00;5086996;28;20081;-70
2023/10/18 03:22:26;;;;;;;0.10;0.10;;;;;;;3.67;82.80;98780.44;5102365;28;20073;-70
2023/10/18 03:24:56;;;;;;;0.00;0.00;;;;;;;3.67;82.91;98753.41;5074550;28;20048;-68
2023/10/18 03:27:25;;;;;;;0.00;0.00;;;;;;;3.64;82.80;98755.78;5092239;28;20044;-68
2023/10/18 03:29:58;;;;;;;0.10;0.10;;;;;;;3.66;82.93;98757.13;5088689;28;20044;-68
2023/10/18 03:32:26;;;;;;;0.10;0.10;;;;;;;3.66;82.49;98773.34;5070735;28;20143;-69
2023/10/18 03:34:53;;;;;;;0.10;0.10;;;;;;;3.64;82.89;98764.69;5087950;28;20117;-68
2023/10/18 03:37:24;;;;;;;0.10;0.10;;;;;;;3.65;82.96;98776.34;5086130;28;20151;-69
2023/10/18 03:39:55;;;;;;;0.10;0.10;;;;;;;3.61;82.44;98759.00;5052569;28;20044;-68
2023/10/18 03:42:33;;;;;;;0.10;0.10;;;;;;;3.67;82.88;98774.19;5069680;28;20052;-68
2023/10/18 03:45:11;;;;;;;0.10;0.10;;;;;;;3.66;82.76;98761.75;5088336;28;20408;-70
2023/10/18 03:47:38;;;;;;;0.00;0.00;;;;;;;3.61;82.94;98765.22;5087415;28;20074;-70
2023/10/18 03:50:14;;;;;;;0.00;0.00;;;;;;;3.66;82.92;98759.03;5067438;28;20535;-70
2023/10/18 03:52:41;;;;;;;0.10;0.10;;;;;;;3.68;83.17;98773.13;5087249;28;20519;-69
2023/10/18 03:55:16;;;;;;;0.10;0.10;;;;;;;3.73;83.23;98773.16;5070362;28;20055;-69
2023/10/18 03:57:42;;;;;;;0.00;0.00;;;;;;;3.75;83.06;98770.22;5081951;28;20410;-68
2023/10/18 04:02:59;;;;;;;0.10;0.10;;;;;;;3.78;83.13;98767.00;5073110;28;20272;-68
2023/10/18 04:05:42;;;;;;;0.10;0.10;;;;;;;3.82;83.66;98771.66;5064951;28;20075;-68
2023/10/18 04:08:13;;;;;;;0.10;0.10;;;;;;;3.82;83.25;98770.81;5066596;28;20044;-68
2023/10/18 04:10:40;;;;;;;0.10;0.10;;;;;;;3.88;83.03;98782.50;5070914;28;20533;-68
2023/10/18 04:13:14;;;;;;;0.10;0.10;;;;;;;3.88;82.93;98786.03;5119981;27;20050;-69
2023/10/18 04:16:00;;;;;;;0.10;0.10;;;;;;;3.90;83.17;98783.88;5091986;27;20043;-70
2023/10/18 04:18:29;;;;;;;0.10;0.10;;;;;;;3.98;82.68;98796.13;5061647;28;20574;-68
2023/10/18 04:20:59;;;;;;;0.10;0.10;;;;;;;3.97;82.54;98789.09;5071779;28;20198;-68
2023/10/18 04:23:26;;;;;;;0.10;0.10;;;;;;;3.95;82.31;98789.34;5071476;28;20068;-68
2023/10/18 04:26:04;;;;;;;0.10;0.10;;;;;;;3.95;82.03;98796.66;5052850;28;20403;-68
2023/10/18 04:28:38;;;;;;;0.10;0.10;;;;;;;3.94;81.85;98786.91;5087015;28;20090;-69
2023/10/18 04:31:11;;;;;;;0.10;0.10;;;;;;;3.93;82.08;98799.59;5108303;28;20114;-69
2023/10/18 04:33:41;;;;;;;0.10;0.10;;;;;;;3.96;82.33;98801.78;5067778;28;20055;-70
2023/10/18 04:36:11;;;;;;;0.10;0.10;;;;;;;4.02;82.02;98799.16;5086062;28;20044;-70
2023/10/18 04:38:47;;;;;;;0.10;0.10;;;;;;;3.97;82.07;98795.31;5083280;28;20146;-70
2023/10/18 04:41:24;;;;;;;0.10;0.10;;;;;;;3.90;82.19;98796.56;5096964;28;20067;-70
2023/10/18 04:43:56;;;;;;;0.10;0.10;;;;;;;3.90;82.29;98797.41;5064096;28;20519;-70
2023/10/18 04:46:28;;;;;;;0.10;0.10;;;;;;;3.86;82.42;98796.28;5082221;28;20268;-70
2023/10/18 04:54:03;;;;;;;0.10;0.10;;;;;;;3.89;82.73;98803.88;5107465;28;20078;-70
2023/10/18 04:56:38;;;;;;;0.10;0.10;;;;;;;3.91;82.60;98807.16;5104565;28;20130;-70
2023/10/18 05:04:28;;;;;;;0.10;0.10;;;;;;;3.85;82.18;98821.72;5071019;28;20056;-71
2023/10/18 05:06:56;;;;;;;0.10;0.10;;;;;;;3.85;82.21;98810.06;5067946;28;20082;-70
2023/10/18 05:10:05;;;;;;;0.10;0.10;;;;;;;3.81;82.05;98826.81;5069514;28;20048;-70
2023/10/18 05:17:42;;;;;;;0.00;0.00;;;;;;;3.83;82.34;98818.44;5085357;28;20128;-70
2023/10/18 05:20:56;;;;;;;0.10;0.10;;;;;;;3.86;82.15;98817.09;5067554;28;20142;-70
2023/10/18 05:23:04;;;;;;;0.10;0.10;;;;;;;3.82;82.15;98825.72;5076132;28;20043;-70
2023/10/18 05:25:33;;;;;;;0.10;0.10;;;;;;;3.86;82.07;98827.91;5068701;28;20528;-70
2023/10/18 05:28:00;;;;;;;0.10;0.10;;;;;;;3.87;82.20;98830.38;5084201;28;20328;-70
2023/10/18 05:33:16;;;;;;;0.10;0.10;;;;;;;3.96;81.89;98825.34;5108539;28;20591;-68
2023/10/18 05:35:45;;;;;;;0.10;0.10;;;;;;;3.99;81.83;98821.31;5068290;28;20101;-70
2023/10/18 05:43:52;;;;;;;0.10;0.10;;;;;;;3.78;81.22;98834.59;5106004;28;20468;-68
2023/10/18 05:45:57;;;;;;;;;;;;;;;3.71;81.08;98839.41;5097465;28;20128;-68
2023/10/18 05:48:25;;;;;;;0.10;0.10;;;;;;;3.63;81.07;98835.25;5107510;28;19928;-67
2023/10/18 05:53:46;;;;;;;0.10;0.10;;;;;;;3.75;81.79;98844.06;5082329;28;20055;-70
2023/10/18 05:56:12;;;;;;;0.10;0.10;;;;;;;3.80;80.99;98840.56;5104719;28;20453;-70
2023/10/18 05:58:38;;;;;;;0.10;0.10;;;;;;;3.81;80.91;98836.78;5085522;28;20055;-70
2023/10/18 06:01:04;;;;;;;0.10;0.10;;;;;;;3.90;80.62;98839.84;5108462;28;20426;-70
2023/10/18 06:03:39;;;;;;;0.10;0.10;;;;;;;3.74;80.80;98817.25;5109332;28;20047;-70
2023/10/18 06:06:06;;;;;;;0.10;0.10;;;;;;;3.94;80.52;98849.91;5107084;28;20051;-70
2023/10/18 06:08:33;;;;;;;0.10;0.10;;;;;;;3.99;80.05;98851.06;5107967;28;20048;-70
2023/10/18 06:11:08;;;;;;;0.10;0.10;;;;;;;4.10;79.71;98844.66;5091477;28;20069;-70
2023/10/18 06:13:37;;;;;;;0.10;0.10;;;;;;;4.09;79.10;98843.03;5079658;28;20042;-68
2023/10/18 06:16:18;;;;;;;0.10;0.10;;;;;;;4.12;78.76;98837.09;5106273;28;20409;-67
2023/10/18 06:18:46;;;;;;;0.10;0.10;;;;;;;4.19;79.07;98832.31;5085618;28;20054;-70
2023/10/18 06:21:18;;;;;;;0.10;0.10;;;;;;;4.22;78.62;98828.28;5087424;28;20047;-70
2023/10/18 06:23:54;;;;;;;0.10;0.10;;;;;;;4.31;78.46;98837.56;5089405;28;20044;-70
2023/10/18 06:26:33;;;;;;;0.10;0.10;;;;;;;4.40;78.06;98840.63;5085208;28;20451;-70
2023/10/18 06:29:11;;;;;;;0.10;0.10;;;;;;;4.44;77.34;98840.91;5087068;28;20130;-67
2023/10/18 06:31:46;;;;;;;0.10;0.10;;;;;;;4.45;78.16;98835.25;5106788;28;20047;-68
2023/10/18 06:34:22;;;;;;;0.10;0.10;;;;;;;4.61;76.08;98846.22;5103707;28;20059;-68
2023/10/18 06:36:49;;;;;;;0.10;0.10;;;;;;;4.56;75.87;98846.97;5104854;28;20123;-68
2023/10/18 06:42:17;;;;;;;0.10;0.10;;;;;;;4.64;75.72;98853.81;5020573;28;20049;-67
2023/10/18 06:44:44;;;;;;;0.10;0.10;;;;;;;4.64;75.42;98845.69;5018275;28;20351;-67
2023/10/18 06:47:13;;;;;;;0.10;0.10;;;;;;;4.55;75.08;98845.34;5024344;28;20547;-70
2023/10/18 06:49:43;;;;;;;0.10;0.10;;;;;;;4.50;75.96;98853.41;5039447;28;20029;-68
2023/10/18 06:52:13;;;;;;;0.10;0.10;;;;;;;4.55;75.77;98850.78;5019979;28;20467;-68
2023/10/18 06:54:42;;;;;;;0.10;0.10;;;;;;;4.54;76.11;98855.34;5035637;28;20087;-68
2023/10/18 06:57:26;;;;;;;0.10;0.10;;;;;;;4.65;75.62;98850.03;5017901;28;20045;-71
2023/10/18 06:59:57;;;;;;;0.17;0.17;;;;;;;4.70;75.20;98857.38;5033648;28;20045;-71
2023/10/18 07:02:27;;;;;;;0.10;0.10;;;;;;;4.82;75.32;98855.28;5016321;28;20449;-70
2023/10/18 07:04:57;;;;;;;0.10;0.10;;;;;;;4.88;74.49;98859.69;5006187;28;20049;-68
2023/10/18 07:07:24;;;;;;;0.10;0.10;;;;;;;4.87;74.24;98857.22;4992710;28;20531;-70
2023/10/18 07:09:56;;;;;;;0.20;0.20;;;;;;;5.19;74.00;98854.47;5036127;28;20459;-70
2023/10/18 07:12:27;;;;;;;0.20;0.20;;;;;;;6.17;70.37;98861.38;5047229;28;21225;-67
2023/10/18 07:14:58;;;;;;;0.10;0.10;;;;;;;6.51;67.48;98847.28;5032929;28;20144;-69
2023/10/18 07:17:24;;;;;;;0.10;0.10;;;;;;;7.23;65.58;98855.38;5052069;28;20086;-70
2023/10/18 07:19:55;;;;;;;0.10;0.10;;;;;;;7.34;63.22;98856.16;5087219;28;20071;-67
2023/10/18 07:25:09;;;;;;;0.10;0.10;;;;;;;6.19;64.93;98868.16;5089590;28;20090;-70
2023/10/18 07:27:36;;;;;;;0.15;0.15;;;;;;;6.86;64.50;98842.91;5069454;28;20040;-70
2023/10/18 07:30:04;;;;;;;0.20;0.20;;;;;;;7.56;61.79;98848.75;5089342;28;20047;-67
2023/10/18 07:32:32;;;;;;;0.08;0.08;;;;;;;8.18;60.00;98848.44;5072015;28;20518;-67
2023/10/18 07:35:00;;;;;;;0.10;0.10;;;;;;;7.65;60.58;98847.88;5070059;28;20051;-68
2023/10/18 07:37:41;;;;;;;0.05;0.05;;;;;;;6.87;62.57;98852.72;5097390;28;20035;-70
2023/10/18 07:40:10;;;;;;;0.10;0.10;;;;;;;6.66;62.98;98850.00;5091437;28;20136;-67
2023/10/18 07:42:41;;;;;;;0.10;0.10;;;;;;;6.42;62.72;98847.00;5100319;28;20044;-67
2023/10/18 07:45:09;;;;;;;0.20;0.20;;;;;;;6.63;62.51;98855.97;5103613;28;20051;-68
2023/10/18 07:47:38;;;;;;;0.10;0.10;;;;;;;7.52;60.21;98848.47;5100887;28;20413;-70
2023/10/18 07:50:34;;;;;;;0.20;0.20;;;;;;;7.57;59.35;98848.47;5085407;28;20066;-68
2023/10/18 07:52:57;;;;;;;0.10;0.10;;;;;;;6.60;60.27;98833.97;5097848;28;20047;-68
2023/10/18 07:55:23;;;;;;;0.10;0.10;;;;;;;6.69;60.95;98854.09;5084150;28;20418;-70
2023/10/18 07:57:50;;;;;;;0.10;0.10;;;;;;;6.23;62.02;98871.97;5082890;28;20039;-71
2023/10/18 08:00:23;;;;;;;0.10;0.10;;;;;;;5.63;63.62;98868.78;5104244;28;20498;-70
2023/10/18 08:02:50;;;;;;;0.10;0.10;;;;;;;5.22;65.62;98869.38;5104167;28;20484;-71
2023/10/18 08:05:50;;;;;;;0.10;0.10;;;;;;;5.04;66.61;98867.91;5070410;28;20089;-68
2023/10/18 08:08:08;;;;;;;;;;;;;;;5.16;66.44;98868.53;5066692;28;20052;-71
2023/10/18 08:10:35;;;;;;;0.10;0.10;;;;;;;4.99;66.72;98870.56;5071902;28;20026;-68
2023/10/18 08:13:47;;;;;;;0.10;0.10;;;;;;;4.89;67.57;98872.16;5106944;28;20036;-68
2023/10/18 08:15:52;;;;;;;0.10;0.10;;;;;;;5.02;67.99;98876.28;5099678;28;20468;-71
2023/10/18 08:18:21;;;;;;;0.10;0.10;;;;;;;5.24;67.13;98878.06;5102379;28;20575;-68
2023/10/18 08:25:51;;;;;;;0.10;0.10;;;;;;;5.82;66.30;98879.94;5108926;28;20039;-70
2023/10/18 08:28:19;;;;;;;0.10;0.10;;;;;;;6.13;65.14;98882.00;5101669;28;20141;-71
2023/10/18 08:33:12;;;;;;;0.10;0.10;;;;;;;6.25;63.66;98885.28;5101468;28;20051;-68
2023/10/18 08:35:38;;;;;;;0.10;0.10;;;;;;;6.28;61.75;98887.47;5101977;28;20058;-68
2023/10/18 08:38:06;;;;;;;0.10;0.10;;;;;;;6.06;63.35;98883.03;5105568;28;20138;-71
2023/10/18 08:40:38;;;;;;;0.10;0.10;;;;;;;6.10;63.93;98891.47;5072352;28;20156;-68
2023/10/18 08:43:12;;;;;;;0.10;0.10;;;;;;;5.96;63.87;98891.16;5070283;28;20138;-71
2023/10/18 08:45:48;;;;;;;0.10;0.10;;;;;;;5.66;64.55;98896.16;5087462;28;20524;-71
2023/10/18 08:48:27;;;;;;;0.10;0.10;;;;;;;5.48;65.48;98889.31;5086484;28;20043;-71
2023/10/18 08:50:56;;;;;;;0.10;0.10;;;;;;;5.48;65.36;98897.44;5105282;28;20128;-70
2023/10/18 08:53:25;;;;;;;0.10;0.10;;;;;;;5.35;65.63;98876.22;5069471;28;20054;-70
2023/10/18 08:55:57;;;;;;;0.10;0.10;;;;;;;5.51;65.92;98898.81;5087112;28;20430;-71
2023/10/18 08:58:28;;;;;;;0.10;0.10;;;;;;;5.46;65.80;98888.75;5086201;28;20059;-70
2023/10/18 09:03:27;;;;;;;0.10;0.10;;;;;;;5.08;67.35;98877.97;5102283;28;20488;-71
2023/10/18 09:06:07;;;;;;;0.10;0.10;;;;;;;5.14;67.53;98889.63;5086870;28;20078;-71
2023/10/18 09:08:38;;;;;;;0.10;0.10;;;;;;;5.01;67.76;98885.50;5104428;28;20105;-68
2023/10/18 09:11:21;;;;;;;0.10;0.10;;;;;;;5.04;68.15;98884.16;5085216;28;20079;-71
2023/10/18 09:14:07;;;;;;;0.10;0.10;;;;;;;5.06;68.18;98876.59;5070108;28;20499;-70
2023/10/18 09:16:35;;;;;;;0.10;0.10;;;;;;;5.19;68.35;98869.91;5102852;28;20128;-70
2023/10/18 09:19:02;;;;;;;0.10;0.10;;;;;;;5.34;67.85;98877.31;5104089;28;20100;-71
2023/10/18 09:21:36;;;;;;;0.10;0.10;;;;;;;5.31;68.44;98875.13;5105952;28;20067;-68
2023/10/18 09:24:03;;;;;;;0.10;0.10;;;;;;;5.51;67.72;98868.97;5097017;27;20040;-70
2023/10/18 09:26:43;;;;;;;0.10;0.10;;;;;;;5.55;67.34;98872.81;5085451;28;20044;-71
2023/10/18 09:29:10;;;;;;;0.10;0.10;;;;;;;5.58;67.24;98871.44;5119485;27;20134;-72
2023/10/18 09:31:50;;;;;;;0.10;0.10;;;;;;;5.67;66.43;98883.44;5083539;28;20264;-71
2023/10/18 09:34:16;;;;;;;0.10;0.10;;;;;;;5.66;66.62;98885.31;5068175;28;20055;-71
2023/10/18 09:36:53;;;;;;;0.10;0.10;;;;;;;5.71;66.40;98883.72;5075214;28;20076;-68
2023/10/18 09:39:21;;;;;;;0.20;0.10;;;;;;;5.63;66.02;98872.28;5086713;28;20147;-68
2023/10/18 09:41:49;;;;;;;0.10;0.10;;;;;;;5.49;66.18;98866.53;5085747;28;20442;-68
2023/10/18 09:44:18;;;;;;;0.10;0.10;;;;;;;5.32;64.74;98871.34;5084406;27;20225;-67
2023/10/18 09:46:48;;;;;;;0.10;0.10;;;;;;;5.18;65.36;98870.97;5088229;28;20051;-67
2023/10/18 09:49:21;;;;;;;0.15;0.15;;;;;;;5.80;65.38;98874.81;5089907;28;20044;-68
2023/10/18 09:51:53;;;;;;;0.10;0.10;;;;;;;6.26;64.22;98867.06;5084909;28;20499;-70
2023/10/18 09:54:21;;;;;;;0.10;0.10;;;;;;;6.22;64.39;98869.50;5048247;28;20060;-70
2023/10/18 09:56:52;;;;;;;0.10;0.10;;;;;;;6.17;64.61;98867.63;5081684;28;20055;-70
2023/10/18 09:59:27;;;;;;;0.10;0.10;;;;;;;6.12;64.47;98864.06;5102024;28;20418;-71
2023/10/18 10:01:59;;;;;;;0.10;0.10;;;;;;;6.17;64.61;98864.91;5103893;28;20043;-68
2023/10/18 10:04:32;;;;;;;0.13;0.13;;;;;;;6.56;64.00;98860.88;5088509;28;20135;-68
2023/10/18 10:07:27;;;;;;;0.10;0.10;;;;;;;6.91;61.94;98847.53;5087852;28;20042;-70
2023/10/18 10:09:47;;;;;;;0.10;0.10;;;;;;;6.89;62.17;98858.69;5088344;28;20492;-71
2023/10/18 10:12:17;;;;;;;0.10;0.10;;;;;;;6.91;62.22;98850.25;5071741;28;20048;-71
2023/10/18 10:14:43;;;;;;;0.10;0.10;;;;;;;7.15;61.73;98869.50;5085301;28;20043;-71
2023/10/18 10:17:12;;;;;;;0.10;0.10;;;;;;;7.60;60.09;98869.69;5083449;28;20089;-71
2023/10/18 10:19:46;;;;;;;0.10;0.10;;;;;;;7.49;59.44;98858.03;5088690;28;20101;-71
2023/10/18 10:22:16;;;;;;;0.10;0.10;;;;;;;7.27;60.41;98852.91;5065910;28;20052;-68
2023/10/18 10:24:43;;;;;;;0.10;0.10;;;;;;;7.09;61.16;98865.19;5065421;28;20044;-68
2023/10/18 10:27:27;;;;;;;0.10;0.10;;;;;;;6.91;61.86;98859.22;5101723;28;20126;-68
2023/10/18 10:29:59;;;;;;;0.10;0.10;;;;;;;6.66;62.19;98863.59;5070418;28;20466;-70
2023/10/18 10:32:28;;;;;;;0.10;0.10;;;;;;;6.60;63.07;98869.28;5082662;28;20047;-68
2023/10/18 10:35:11;;;;;;;0.10;0.10;;;;;;;6.50;63.76;98857.34;5083048;27;20511;-68
2023/10/18 10:37:46;;;;;;;0.10;0.10;;;;;;;6.44;64.21;98854.88;5117536;27;20541;-68
2023/10/18 10:40:19;;;;;;;0.10;0.10;;;;;;;6.32;64.95;98861.38;5103627;28;20425;-68
2023/10/18 10:42:48;;;;;;;0.10;0.10;;;;;;;6.32;65.07;98864.09;5103824;28;20127;-69
2023/10/18 10:48:31;;;;;;;0.10;0.10;;;;;;;6.05;65.60;98865.13;5136677;27;20485;-68
2023/10/18 10:51:20;;;;;;;0.10;0.10;;;;;;;5.95;66.38;98871.31;5118541;27;20046;-68
2023/10/18 10:53:50;;;;;;;0.10;0.10;;;;;;;5.91;66.27;98872.94;5119590;27;20436;-67
2023/10/18 10:56:27;;;;;;;0.10;0.10;;;;;;;5.88;66.46;98867.22;5118502;27;20039;-68
2023/10/18 10:58:55;;;;;;;0.20;0.20;;;;;;;5.89;66.50;98877.00;5119489;27;20055;-69
2023/10/18 11:01:39;;;;;;;0.10;0.10;;;;;;;5.87;66.78;98877.28;5119323;28;20085;-67
2023/10/18 11:04:24;;;;;;;0.10;0.10;;;;;;;5.89;66.91;98874.28;5120189;27;20050;-68
2023/10/18 11:07:01;;;;;;;0.10;0.10;;;;;;;5.90;67.26;98878.63;5118315;27;20047;-68
2023/10/18 11:09:34;;;;;;;0.10;0.10;;;;;;;6.06;66.94;98872.19;5118240;27;20043;-67
2023/10/18 11:12:07;;;;;;;0.10;0.10;;;;;;;6.08;66.75;98869.22;5103696;28;20077;-67
2023/10/18 11:14:36;;;;;;;0.10;0.10;;;;;;;6.09;66.68;98870.84;5116496;27;20134;-67
2023/10/18 11:19:51;;;;;;;0.10;0.10;;;;;;;6.16;66.42;98867.88;5116702;27;20043;-68
2023/10/18 11:22:22;;;;;;;0.10;0.10;;;;;;;6.20;66.24;98875.22;5120298;28;20372;-70
2023/10/18 11:24:50;;;;;;;0.00;0.00;;;;;;;6.12;66.84;98864.88;5121510;27;20047;-70
2023/10/18 11:27:18;;;;;;;0.10;0.10;;;;;;;6.12;67.04;98869.50;5121745;28;20054;-70
2023/10/18 11:29:46;;;;;;;0.10;0.10;;;;;;;6.04;67.08;98865.41;5119888;27;20051;-70
2023/10/18 11:32:18;;;;;;;0.10;0.10;;;;;;;6.06;67.00;98863.25;5122191;28;20062;-71
2023/10/18 11:34:46;;;;;;;0.10;0.10;;;;;;;6.24;66.94;98867.34;5119844;27;20044;-70
2023/10/18 11:39:58;;;;;;;0.10;0.10;;;;;;;6.41;66.42;98850.81;5121229;27;20571;-70
2023/10/18 11:42:25;;;;;;;0.10;0.10;;;;;;;6.42;66.38;98855.16;5122475;27;20047;-70
2023/10/18 11:44:54;;;;;;;0.10;0.10;;;;;;;6.41;66.53;98848.09;5120945;27;20488;-68
2023/10/18 11:47:20;;;;;;;0.10;0.10;;;;;;;6.45;66.74;98856.53;5119168;27;20207;-67
2023/10/18 11:49:53;;;;;;;0.10;0.10;;;;;;;6.46;66.46;98852.72;5116638;27;20050;-67
2023/10/18 11:52:25;;;;;;;0.10;0.10;;;;;;;6.34;67.26;98851.06;5119658;28;20544;-68
2023/10/18 11:55:02;;;;;;;0.00;0.00;;;;;;;6.36;66.78;98848.09;5122116;27;20057;-68
2023/10/18 11:57:35;;;;;;;0.10;0.10;;;;;;;6.29;66.90;98861.09;5122473;27;20047;-68
2023/10/18 12:02:47;;;;;;;0.10;0.10;;;;;;;6.08;68.36;98852.94;5108258;28;20533;-70
2023/10/18 12:05:23;;;;;;;0.10;0.10;;;;;;;6.15;68.27;98858.91;5107112;28;20050;-70
2023/10/18 12:07:49;;;;;;;0.10;0.10;;;;;;;6.07;68.64;98852.09;5105429;27;20048;-70
2023/10/18 12:10:26;;;;;;;0.10;0.10;;;;;;;6.09;68.92;98860.81;5105313;28;20052;-70
2023/10/18 12:12:52;;;;;;;0.10;0.10;;;;;;;6.07;68.85;98854.03;5108356;28;20418;-70
2023/10/18 12:15:19;;;;;;;0.10;0.10;;;;;;;6.10;69.27;98850.75;5107732;28;20526;-70
2023/10/18 12:17:46;;;;;;;0.10;0.10;;;;;;;6.13;69.10;98847.50;5108708;28;20066;-70
2023/10/18 12:20:13;;;;;;;0.10;0.10;;;;;;;6.20;68.88;98855.38;5108726;28;20627;-70
2023/10/18 12:22:42;;;;;;;0.10;0.10;;;;;;;6.18;69.04;98846.72;5109780;28;20051;-70
2023/10/18 12:25:09;;;;;;;0.10;0.10;;;;;;;6.25;69.15;98833.69;5104598;28;20048;-68
2023/10/18 12:27:35;;;;;;;0.10;0.10;;;;;;;6.48;68.84;98847.81;5096232;28;20058;-67
2023/10/18 12:33:14;;;;;;;0.10;0.10;;;;;;;6.43;68.43;98837.78;5084907;28;20089;-68
2023/10/18 12:35:41;;;;;;;0.10;0.10;;;;;;;6.36;69.41;98838.03;5083485;28;20047;-67
2023/10/18 12:38:15;;;;;;;0.10;0.10;;;;;;;6.35;70.03;98833.69;5084887;28;20055;-70
2023/10/18 12:40:58;;;;;;;0.10;0.10;;;;;;;6.31;70.58;98848.06;5045774;28;20049;-70
2023/10/18 12:43:25;;;;;;;0.10;0.10;;;;;;;6.15;71.34;98849.97;5064591;28;20059;-70
2023/10/18 12:45:52;;;;;;;0.10;0.10;;;;;;;6.01;72.40;98853.19;5046659;28;20060;-70
2023/10/18 12:48:22;;;;;;;0.10;0.10;;;;;;;6.00;72.99;98851.53;5046734;28;20842;-68
2023/10/18 12:50:50;;;;;;;0.10;0.10;;;;;;;6.02;73.16;98848.59;5064403;28;20052;-68
2023/10/18 12:55:57;;;;;;;0.10;0.10;;;;;;;6.00;73.04;98847.97;5063688;28;20041;-68
2023/10/18 12:58:28;;;;;;;0.10;0.10;;;;;;;6.00;73.44;98851.53;5062545;28;20396;-67
2023/10/18 13:01:05;;;;;;;0.10;0.10;;;;;;;5.97;73.72;98852.88;5065094;28;20044;-70
2023/10/18 13:03:37;;;;;;;0.10;0.10;;;;;;;5.95;74.32;98854.25;5068081;28;20040;-70
2023/10/18 13:06:07;;;;;;;0.03;0.03;;;;;;;5.92;74.02;98858.28;5050530;28;20052;-70